Time;durP1;ratioP1;P1;durP2;ratioP2;P2;SDS_P1;SDS_P2;PMS_P1;PMS_P2;Temp;Humidity;BMP_temperature;BMP_pressure;BME280_temperature;BME280_humidity;BME280_pressure;Samples;Min_cycle;Max_cycle;Signal;HPM_P1;HPM_P2
2023/01/09 00:00:17;;;;;;;5.13;1.88;;;;;;;;;;4982131;28;99312;-79
2023/01/09 00:02:44;;;;;;;3.67;1.30;;;;;;;;;;4984983;28;100590;-80
2023/01/09 00:05:12;;;;;;;1.33;0.98;;;;;;;;;;4977227;28;100178;-80
2023/01/09 00:07:38;;;;;;;3.92;2.63;;;;;;;;;;4985849;28;99003;-79
2023/01/09 00:10:05;;;;;;;1.73;1.17;;;;;;;;;;4985307;28;100395;-80
2023/01/09 00:12:31;;;;;;;2.50;1.25;;;;;;;;;;4982720;28;100018;-79
2023/01/09 00:14:58;;;;;;;7.30;2.15;;;;;;;;;;4987898;28;99983;-79
2023/01/09 00:17:24;;;;;;;6.80;2.17;;;;;;;;;;4986271;28;100022;-80
2023/01/09 00:19:51;;;;;;;3.28;1.40;;;;;;;;;;4978686;28;98548;-80
2023/01/09 00:22:17;;;;;;;3.45;1.77;;;;;;;;;;4982797;28;99337;-80
2023/01/09 00:24:43;;;;;;;1.90;1.20;;;;;;;;;;4984022;28;99351;-79
2023/01/09 00:27:10;;;;;;;4.38;1.40;;;;;;;;;;4978249;28;100930;-78
2023/01/09 00:29:36;;;;;;;1.67;1.42;;;;;;;;;;4984491;28;100225;-78
2023/01/09 00:32:02;;;;;;;5.80;1.83;;;;;;;;;;4983696;28;98957;-79
2023/01/09 00:34:29;;;;;;;2.03;1.25;;;;;;;;;;4985031;28;99859;-79
2023/01/09 00:36:55;;;;;;;5.30;1.40;;;;;;;;;;4981197;28;100090;-79
2023/01/09 00:39:22;;;;;;;2.15;1.75;;;;;;;;;;4984569;28;99818;-79
2023/01/09 00:41:50;;;;;;;3.08;1.58;;;;;;;;;;4985524;28;99729;-79
2023/01/09 00:44:18;;;;;;;5.57;1.80;;;;;;;;;;4983671;28;99917;-79
2023/01/09 00:46:50;;;;;;;3.95;1.60;;;;;;;;;;4974007;28;100056;-79
2023/01/09 00:49:17;;;;;;;3.92;1.48;;;;;;;;;;4985162;28;100935;-79
2023/01/09 00:51:43;;;;;;;5.15;1.67;;;;;;;;;;4983452;28;100129;-80
2023/01/09 00:54:10;;;;;;;2.08;1.52;;;;;;;;;;4978007;28;99976;-80
2023/01/09 00:56:37;;;;;;;4.53;1.65;;;;;;;;;;4984607;28;99256;-80
2023/01/09 00:59:03;;;;;;;3.35;1.65;;;;;;;;;;4983738;28;100297;-79
2023/01/09 01:01:30;;;;;;;3.08;1.80;;;;;;;;;;4984573;28;100055;-79
2023/01/09 01:03:56;;;;;;;4.10;1.73;;;;;;;;;;4978042;28;99004;-78
2023/01/09 01:09:07;;;;;;;2.88;1.77;;;;;;;;;;4967853;28;99468;-79
2023/01/09 01:11:34;;;;;;;6.28;2.20;;;;;;;;;;4982799;28;99238;-79
2023/01/09 01:14:01;;;;;;;5.93;2.30;;;;;;;;;;4965677;28;99448;-79
2023/01/09 01:16:28;;;;;;;3.42;1.73;;;;;;;;;;4984676;28;99361;-79
2023/01/09 01:18:54;;;;;;;3.53;2.03;;;;;;;;;;4984423;28;99102;-80
2023/01/09 01:21:20;;;;;;;3.13;1.67;;;;;;;;;;4982485;28;99374;-80
2023/01/09 01:23:47;;;;;;;6.05;2.20;;;;;;;;;;4986341;28;100868;-79
2023/01/09 01:26:14;;;;;;;6.70;2.00;;;;;;;;;;4983994;28;99122;-79
2023/01/09 01:28:41;;;;;;;7.25;2.65;;;;;;;;;;4988102;28;100005;-79
2023/01/09 01:31:07;;;;;;;5.88;2.20;;;;;;;;;;4987477;28;99853;-79
2023/01/09 01:33:34;;;;;;;2.22;2.08;;;;;;;;;;4988156;28;100128;-79
2023/01/09 01:36:01;;;;;;;3.78;2.33;;;;;;;;;;4975641;28;100513;-79
2023/01/09 01:38:28;;;;;;;4.53;2.28;;;;;;;;;;4987671;28;100732;-79
2023/01/09 01:40:54;;;;;;;4.82;2.08;;;;;;;;;;4990848;28;99698;-78
2023/01/09 01:43:21;;;;;;;2.75;2.33;;;;;;;;;;4985721;28;99931;-79
2023/01/09 01:45:47;;;;;;;7.00;2.55;;;;;;;;;;4976944;28;99018;-78
2023/01/09 01:48:16;;;;;;;4.95;3.13;;;;;;;;;;4986355;28;100104;-79
2023/01/09 01:50:45;;;;;;;7.07;2.72;;;;;;;;;;4980826;28;99983;-78
2023/01/09 01:53:17;;;;;;;8.88;2.63;;;;;;;;;;4986074;28;100901;-79
2023/01/09 01:55:45;;;;;;;3.90;2.58;;;;;;;;;;4979326;28;99551;-79
2023/01/09 01:58:13;;;;;;;5.07;3.22;;;;;;;;;;4985819;28;99322;-79
2023/01/09 02:00:41;;;;;;;7.30;4.00;;;;;;;;;;4980348;28;99100;-78
2023/01/09 02:03:07;;;;;;;6.88;2.50;;;;;;;;;;4990076;28;100990;-79
2023/01/09 02:05:35;;;;;;;8.30;3.30;;;;;;;;;;4986510;28;100615;-79
2023/01/09 02:08:01;;;;;;;6.72;3.30;;;;;;;;;;4987703;28;99333;-79
2023/01/09 02:10:28;;;;;;;7.30;4.28;;;;;;;;;;4978488;28;100126;-78
2023/01/09 02:12:54;;;;;;;5.55;4.30;;;;;;;;;;4980768;28;101394;-79
2023/01/09 02:15:20;;;;;;;7.07;4.45;;;;;;;;;;4971975;28;99598;-79
2023/01/09 02:17:53;;;;;;;5.05;4.60;;;;;;;;;;4986028;28;100866;-78
2023/01/09 02:20:39;;;;;;;4.75;4.32;;;;;;;;;;4970236;28;99968;-79
2023/01/09 02:23:21;;;;;;;8.38;5.28;;;;;;;;;;4980400;28;99299;-79
2023/01/09 02:25:47;;;;;;;8.55;5.85;;;;;;;;;;4990830;28;99225;-79
2023/01/09 02:28:29;;;;;;;7.70;5.53;;;;;;;;;;4983848;28;100901;-78
2023/01/09 02:31:00;;;;;;;6.82;6.22;;;;;;;;;;4985826;28;99486;-79
2023/01/09 02:33:50;;;;;;;8.55;6.60;;;;;;;;;;4981877;28;99271;-78
2023/01/09 02:36:22;;;;;;;7.72;6.28;;;;;;;;;;4971063;28;99226;-79
2023/01/09 02:38:49;;;;;;;9.50;6.68;;;;;;;;;;4983253;28;98543;-78
2023/01/09 02:41:15;;;;;;;10.88;6.65;;;;;;;;;;4986938;28;99313;-78
2023/01/09 02:43:41;;;;;;;8.98;7.13;;;;;;;;;;4982824;28;99312;-78
2023/01/09 02:46:18;;;;;;;7.63;6.93;;;;;;;;;;4974524;28;99098;-78
2023/01/09 02:48:45;;;;;;;6.60;6.03;;;;;;;;;;4977874;28;99151;-78
2023/01/09 02:51:14;;;;;;;7.07;6.57;;;;;;;;;;4984907;28;99156;-79
2023/01/09 02:53:46;;;;;;;6.93;6.28;;;;;;;;;;4986110;28;99384;-79
2023/01/09 02:56:29;;;;;;;9.93;6.70;;;;;;;;;;4981977;28;100407;-79
2023/01/09 02:59:01;;;;;;;13.35;6.18;;;;;;;;;;4982885;28;99212;-79
2023/01/09 03:01:31;;;;;;;10.43;6.27;;;;;;;;;;4968217;28;98912;-79
2023/01/09 03:04:06;;;;;;;11.82;6.78;;;;;;;;;;4984011;28;99276;-79
2023/01/09 03:06:40;;;;;;;7.85;5.78;;;;;;;;;;4980613;28;100089;-79
2023/01/09 03:09:10;;;;;;;7.60;6.20;;;;;;;;;;4984097;28;100126;-79
2023/01/09 03:11:43;;;;;;;11.73;6.53;;;;;;;;;;4969917;28;99501;-79
2023/01/09 03:14:12;;;;;;;7.50;5.72;;;;;;;;;;4978614;28;98521;-79
2023/01/09 03:16:41;;;;;;;7.10;6.13;;;;;;;;;;4990114;28;100181;-79
2023/01/09 03:19:10;;;;;;;11.13;6.88;;;;;;;;;;4980648;28;99797;-79
2023/01/09 03:21:37;;;;;;;6.72;6.03;;;;;;;;;;4980392;28;100900;-79
2023/01/09 03:24:04;;;;;;;10.45;5.80;;;;;;;;;;4982131;28;100350;-79
2023/01/09 03:26:30;;;;;;;10.05;5.57;;;;;;;;;;4979572;28;99977;-79
2023/01/09 03:28:57;;;;;;;13.10;5.95;;;;;;;;;;4986227;28;100004;-79
2023/01/09 03:31:23;;;;;;;14.77;6.13;;;;;;;;;;4991644;28;99185;-79
2023/01/09 03:33:50;;;;;;;12.40;6.40;;;;;;;;;;4986676;28;99583;-79
2023/01/09 03:36:17;;;;;;;13.88;6.57;;;;;;;;;;4978733;28;98823;-79
2023/01/09 03:38:43;;;;;;;9.75;5.63;;;;;;;;;;4982172;28;99217;-79
2023/01/09 03:41:09;;;;;;;9.48;5.75;;;;;;;;;;4985667;28;99135;-79
2023/01/09 03:43:36;;;;;;;14.38;6.43;;;;;;;;;;4983980;28;102734;-79
2023/01/09 03:46:03;;;;;;;13.00;5.55;;;;;;;;;;4985345;28;100141;-79
2023/01/09 03:48:30;;;;;;;9.82;5.70;;;;;;;;;;4985299;28;99928;-79
2023/01/09 03:50:56;;;;;;;9.45;6.43;;;;;;;;;;4980809;28;100515;-79
2023/01/09 03:53:24;;;;;;;12.23;5.82;;;;;;;;;;4986748;28;99875;-79
2023/01/09 03:55:52;;;;;;;10.07;5.60;;;;;;;;;;4982283;28;100262;-79
2023/01/09 03:58:19;;;;;;;11.10;5.85;;;;;;;;;;4986093;28;100177;-80
2023/01/09 04:00:47;;;;;;;6.00;5.32;;;;;;;;;;4985714;28;99909;-78
2023/01/09 04:03:14;;;;;;;13.18;5.88;;;;;;;;;;4984121;28;99198;-79
2023/01/09 04:05:42;;;;;;;13.25;5.70;;;;;;;;;;4987261;28;99191;-79
2023/01/09 04:08:08;;;;;;;8.02;5.15;;;;;;;;;;4987943;28;99286;-79
2023/01/09 04:10:35;;;;;;;8.43;5.72;;;;;;;;;;4973298;28;100824;-79
2023/01/09 04:13:01;;;;;;;9.75;5.50;;;;;;;;;;4985168;28;101424;-78
2023/01/09 04:15:28;;;;;;;7.82;5.13;;;;;;;;;;4986926;28;99858;-78
2023/01/09 04:17:54;;;;;;;14.95;5.78;;;;;;;;;;4985057;28;98886;-79
2023/01/09 04:20:20;;;;;;;8.20;4.97;;;;;;;;;;4975451;28;99562;-79
2023/01/09 04:22:47;;;;;;;9.57;5.60;;;;;;;;;;4972799;28;99926;-79
2023/01/09 04:25:13;;;;;;;11.68;4.70;;;;;;;;;;4974734;28;100480;-79
2023/01/09 04:27:40;;;;;;;8.82;4.80;;;;;;;;;;4971651;28;99409;-78
2023/01/09 04:30:06;;;;;;;10.00;4.70;;;;;;;;;;4983637;28;100121;-79
2023/01/09 04:32:33;;;;;;;14.60;4.45;;;;;;;;;;4984401;28;100029;-79
2023/01/09 04:34:59;;;;;;;7.60;4.30;;;;;;;;;;4983739;28;100849;-79
2023/01/09 04:37:25;;;;;;;9.82;4.53;;;;;;;;;;4987320;28;100173;-79
2023/01/09 04:39:54;;;;;;;13.50;4.68;;;;;;;;;;4986635;28;100273;-79
2023/01/09 04:42:21;;;;;;;11.32;3.83;;;;;;;;;;4983513;28;99495;-79
2023/01/09 04:44:47;;;;;;;15.13;4.63;;;;;;;;;;4984954;28;100202;-79
2023/01/09 04:47:13;;;;;;;6.30;4.10;;;;;;;;;;4984455;28;99056;-79
2023/01/09 04:49:40;;;;;;;4.60;3.53;;;;;;;;;;4983664;28;98806;-78
2023/01/09 04:52:06;;;;;;;8.35;3.92;;;;;;;;;;4984493;28;99060;-79
2023/01/09 04:54:33;;;;;;;11.40;3.70;;;;;;;;;;4981565;28;99150;-79
2023/01/09 04:56:59;;;;;;;7.72;3.65;;;;;;;;;;4985319;28;101928;-79
2023/01/09 04:59:26;;;;;;;6.60;3.47;;;;;;;;;;4989892;28;99022;-79
2023/01/09 05:01:54;;;;;;;8.38;4.00;;;;;;;;;;4983293;28;99624;-79
2023/01/09 05:04:20;;;;;;;10.85;4.85;;;;;;;;;;4983969;28;101133;-79
2023/01/09 05:06:47;;;;;;;6.97;3.17;;;;;;;;;;4985184;28;100603;-79
2023/01/09 05:09:13;;;;;;;7.90;3.40;;;;;;;;;;4979230;28;99337;-79
2023/01/09 05:11:40;;;;;;;6.07;3.13;;;;;;;;;;4970541;28;99828;-80
2023/01/09 05:14:06;;;;;;;6.28;3.83;;;;;;;;;;4985501;28;99062;-79
2023/01/09 05:16:32;;;;;;;7.63;3.20;;;;;;;;;;4983507;28;99538;-79
2023/01/09 05:18:59;;;;;;;14.23;3.35;;;;;;;;;;4983714;28;100022;-79
2023/01/09 05:21:26;;;;;;;2.47;2.00;;;;;;;;;;4987135;28;100266;-78
2023/01/09 05:23:52;;;;;;;11.40;3.20;;;;;;;;;;4982333;28;99992;-80
2023/01/09 05:26:22;;;;;;;8.18;3.08;;;;;;;;;;4978302;28;100207;-78
2023/01/09 05:28:50;;;;;;;5.55;2.80;;;;;;;;;;4983547;28;100284;-79
2023/01/09 05:31:17;;;;;;;7.55;2.70;;;;;;;;;;4984453;28;100250;-79
2023/01/09 05:33:43;;;;;;;4.65;2.53;;;;;;;;;;4972025;28;100203;-78
2023/01/09 05:36:10;;;;;;;7.80;3.47;;;;;;;;;;4977270;28;99743;-79
2023/01/09 05:38:36;;;;;;;6.05;2.50;;;;;;;;;;4983809;28;99653;-78
2023/01/09 05:41:03;;;;;;;6.75;2.63;;;;;;;;;;4987107;28;99113;-79
2023/01/09 05:43:29;;;;;;;7.10;1.95;;;;;;;;;;4971690;28;99986;-79
2023/01/09 05:45:55;;;;;;;5.03;2.10;;;;;;;;;;4965378;28;99384;-78
2023/01/09 05:48:22;;;;;;;5.30;2.28;;;;;;;;;;4977448;28;100219;-79
2023/01/09 05:50:48;;;;;;;5.93;2.28;;;;;;;;;;4971711;28;100025;-78
2023/01/09 05:53:15;;;;;;;15.23;2.50;;;;;;;;;;4980265;28;99924;-78
2023/01/09 05:55:41;;;;;;;6.88;2.30;;;;;;;;;;4982842;28;100636;-79
2023/01/09 05:58:07;;;;;;;9.07;2.10;;;;;;;;;;4978217;28;98614;-79
2023/01/09 06:00:34;;;;;;;7.55;2.30;;;;;;;;;;4983625;28;99809;-79
2023/01/09 06:03:00;;;;;;;4.72;2.00;;;;;;;;;;4986531;28;99571;-79
2023/01/09 06:05:27;;;;;;;4.78;2.53;;;;;;;;;;4988119;28;98576;-79
2023/01/09 06:07:53;;;;;;;8.60;3.10;;;;;;;;;;4974091;28;100448;-79
2023/01/09 06:10:19;;;;;;;8.20;2.30;;;;;;;;;;4986225;28;99996;-79
2023/01/09 06:12:46;;;;;;;10.98;2.65;;;;;;;;;;4986249;28;100683;-79
2023/01/09 06:15:14;;;;;;;4.95;2.60;;;;;;;;;;4985120;28;100210;-79
2023/01/09 06:17:41;;;;;;;9.52;2.67;;;;;;;;;;4982277;28;99636;-79
2023/01/09 06:20:07;;;;;;;6.82;2.67;;;;;;;;;;4986171;28;99912;-78
2023/01/09 06:22:34;;;;;;;8.50;2.63;;;;;;;;;;4987415;28;99448;-79
2023/01/09 06:25:00;;;;;;;14.57;3.13;;;;;;;;;;4990227;28;100082;-78
2023/01/09 06:27:26;;;;;;;9.07;2.35;;;;;;;;;;4986836;28;98449;-78
2023/01/09 06:29:53;;;;;;;7.38;3.00;;;;;;;;;;4985050;28;99108;-78
2023/01/09 06:32:19;;;;;;;13.30;2.97;;;;;;;;;;4987069;28;99021;-79
2023/01/09 06:34:45;;;;;;;5.82;2.80;;;;;;;;;;4984316;28;101164;-79
2023/01/09 06:37:12;;;;;;;11.65;2.95;;;;;;;;;;4986446;28;99163;-79
2023/01/09 06:39:38;;;;;;;5.15;2.70;;;;;;;;;;4987534;28;98985;-79
2023/01/09 06:42:05;;;;;;;10.15;2.85;;;;;;;;;;4983570;28;99323;-79
2023/01/09 06:44:32;;;;;;;8.55;3.05;;;;;;;;;;4984954;28;99044;-79
2023/01/09 06:46:58;;;;;;;11.57;2.83;;;;;;;;;;4986896;28;100054;-79
2023/01/09 06:49:24;;;;;;;10.40;3.03;;;;;;;;;;4982556;28;99156;-79
2023/01/09 06:51:51;;;;;;;12.80;4.35;;;;;;;;;;4978889;28;100023;-79
2023/01/09 06:54:18;;;;;;;8.25;2.60;;;;;;;;;;4983399;28;101074;-79
2023/01/09 06:56:44;;;;;;;7.32;2.90;;;;;;;;;;4984798;28;99990;-81
2023/01/09 06:59:11;;;;;;;12.40;3.88;;;;;;;;;;4983999;28;100664;-78
2023/01/09 07:01:40;;;;;;;9.95;3.15;;;;;;;;;;4984046;28;99637;-78
2023/01/09 07:04:09;;;;;;;8.23;2.47;;;;;;;;;;4976846;28;100643;-79
2023/01/09 07:06:35;;;;;;;6.60;2.63;;;;;;;;;;4978552;28;101562;-79
2023/01/09 07:09:02;;;;;;;12.68;2.55;;;;;;;;;;4983099;28;101687;-79
2023/01/09 07:11:28;;;;;;;8.98;3.00;;;;;;;;;;4974370;28;99900;-79
2023/01/09 07:13:54;;;;;;;9.15;3.30;;;;;;;;;;4979907;28;100236;-77
2023/01/09 07:16:21;;;;;;;9.45;2.58;;;;;;;;;;4975723;28;98727;-76
2023/01/09 07:18:47;;;;;;;12.90;3.08;;;;;;;;;;4975730;28;99075;-77
2023/01/09 07:21:14;;;;;;;6.57;2.38;;;;;;;;;;4980448;28;100249;-75
2023/01/09 07:23:40;;;;;;;10.23;2.63;;;;;;;;;;4982527;28;100214;-77
2023/01/09 07:26:06;;;;;;;10.43;3.33;;;;;;;;;;4979956;28;100958;-75
2023/01/09 07:28:33;;;;;;;6.10;2.10;;;;;;;;;;4980608;28;99502;-76
2023/01/09 07:31:03;;;;;;;11.82;3.95;;;;;;;;;;4992762;28;98624;-80
2023/01/09 07:33:29;;;;;;;7.47;2.80;;;;;;;;;;4979979;28;100714;-79
2023/01/09 07:35:56;;;;;;;12.77;3.35;;;;;;;;;;4978010;28;100378;-80
2023/01/09 07:38:22;;;;;;;10.90;3.50;;;;;;;;;;4975310;28;100145;-80
2023/01/09 07:40:48;;;;;;;8.13;3.13;;;;;;;;;;4975593;28;99443;-79
2023/01/09 07:43:15;;;;;;;10.20;4.22;;;;;;;;;;4979411;28;100623;-80
2023/01/09 07:45:41;;;;;;;14.65;3.65;;;;;;;;;;4973669;27;99092;-80
2023/01/09 07:48:08;;;;;;;9.68;3.22;;;;;;;;;;4978158;28;100975;-81
2023/01/09 07:50:34;;;;;;;8.43;3.97;;;;;;;;;;4983292;27;99492;-79
2023/01/09 07:53:00;;;;;;;7.25;3.85;;;;;;;;;;4979275;28;99399;-81
2023/01/09 07:55:27;;;;;;;12.00;4.00;;;;;;;;;;4973454;28;100156;-81
2023/01/09 07:57:53;;;;;;;9.73;4.20;;;;;;;;;;4979403;28;99722;-80
2023/01/09 08:00:20;;;;;;;6.38;3.60;;;;;;;;;;4985628;28;99636;-82
2023/01/09 08:02:52;;;;;;;10.25;4.25;;;;;;;;;;4979198;28;100019;-81
2023/01/09 08:05:19;;;;;;;;;;;;;;;;;;4981340;28;99160;-81
2023/01/09 08:07:45;;;;;;;9.40;5.30;;;;;;;;;;4971281;28;129925;-81
2023/01/09 08:10:12;;;;;;;6.30;4.28;;;;;;;;;;4982036;28;99851;-80
2023/01/09 08:12:41;;;;;;;8.57;4.55;;;;;;;;;;4976695;28;100018;-80
2023/01/09 08:15:07;;;;;;;12.07;5.03;;;;;;;;;;4979094;28;99068;-80
2023/01/09 08:17:34;;;;;;;7.45;5.35;;;;;;;;;;4981540;28;100064;-80
2023/01/09 08:20:00;;;;;;;6.38;4.78;;;;;;;;;;4973156;28;100486;-79
2023/01/09 08:22:26;;;;;;;9.57;4.50;;;;;;;;;;4983873;27;99330;-80
2023/01/09 08:24:53;;;;;;;8.57;4.03;;;;;;;;;;4976103;28;100221;-81
2023/01/09 08:27:19;;;;;;;9.13;4.13;;;;;;;;;;4974368;28;100421;-80
2023/01/09 08:29:45;;;;;;;9.70;3.70;;;;;;;;;;4979246;28;99965;-82
2023/01/09 08:32:12;;;;;;;6.95;3.60;;;;;;;;;;4978286;28;99355;-80
2023/01/09 08:34:38;;;;;;;6.82;3.30;;;;;;;;;;4983799;28;100293;-83
2023/01/09 08:37:04;;;;;;;8.23;3.13;;;;;;;;;;4970491;28;99848;-84
2023/01/09 08:39:31;;;;;;;6.50;3.10;;;;;;;;;;4979439;28;100480;-85
2023/01/09 08:47:32;;;;;;;3.80;2.42;;;;;;;;;;4976220;28;100234;-87
2023/01/09 08:49:59;;;;;;;5.20;2.28;;;;;;;;;;4971273;28;100267;-87
2023/01/09 08:52:25;;;;;;;5.85;2.72;;;;;;;;;;4980059;28;100092;-87
2023/01/09 08:54:51;;;;;;;3.05;2.40;;;;;;;;;;4978943;28;99636;-88
2023/01/09 08:57:18;;;;;;;7.53;2.30;;;;;;;;;;4975721;28;99214;-88
2023/01/09 08:59:44;;;;;;;6.53;2.70;;;;;;;;;;4981026;28;99393;-86
2023/01/09 09:02:10;;;;;;;6.70;2.63;;;;;;;;;;4974262;28;99843;-87
2023/01/09 09:04:37;;;;;;;10.13;3.10;;;;;;;;;;4973014;28;100798;-87
2023/01/09 09:07:03;;;;;;;8.32;2.70;;;;;;;;;;4978976;28;99814;-88
2023/01/09 09:09:29;;;;;;;8.25;3.13;;;;;;;;;;4977091;28;100130;-86
2023/01/09 09:11:56;;;;;;;5.38;2.15;;;;;;;;;;4975004;28;99196;-88
2023/01/09 09:17:07;;;;;;;3.60;2.28;;;;;;;;;;4977796;28;100051;-87
2023/01/09 09:19:33;;;;;;;11.57;3.20;;;;;;;;;;4993492;28;99586;-87
2023/01/09 09:22:00;;;;;;;5.13;2.30;;;;;;;;;;4976541;28;98593;-87
2023/01/09 09:24:26;;;;;;;5.20;1.80;;;;;;;;;;4984286;28;99598;-88
2023/01/09 09:26:52;;;;;;;5.38;2.10;;;;;;;;;;4971367;28;101159;-87
2023/01/09 09:29:19;;;;;;;3.42;1.67;;;;;;;;;;4978224;28;100403;-87
2023/01/09 09:31:45;;;;;;;6.30;2.00;;;;;;;;;;4984248;28;99326;-87
2023/01/09 09:34:12;;;;;;;4.38;1.80;;;;;;;;;;4976815;28;100907;-87
2023/01/09 09:36:38;;;;;;;8.93;1.95;;;;;;;;;;4979750;28;100249;-86
2023/01/09 09:39:06;;;;;;;9.70;2.50;;;;;;;;;;4982416;28;100846;-86
2023/01/09 09:44:45;;;;;;;8.32;2.80;;;;;;;;;;4991380;28;100267;-86
2023/01/09 09:47:19;;;;;;;7.85;2.20;;;;;;;;;;4984163;28;99257;-87
2023/01/09 09:49:48;;;;;;;7.70;1.75;;;;;;;;;;4981663;28;99227;-86
2023/01/09 09:52:35;;;;;;;10.80;3.83;;;;;;;;;;4986441;28;101064;-87
2023/01/09 09:55:04;;;;;;;13.18;2.10;;;;;;;;;;4977279;28;100346;-86
2023/01/09 09:57:34;;;;;;;14.45;1.70;;;;;;;;;;4979430;28;100148;-87
2023/01/09 10:00:02;;;;;;;10.45;1.90;;;;;;;;;;4986407;28;100506;-86
2023/01/09 10:02:41;;;;;;;3.95;1.30;;;;;;;;;;4978403;28;98945;-87
2023/01/09 10:05:12;;;;;;;3.50;1.67;;;;;;;;;;4974203;28;98985;-87
2023/01/09 10:07:45;;;;;;;6.45;1.92;;;;;;;;;;4987425;28;99768;-87
2023/01/09 10:10:17;;;;;;;6.18;1.52;;;;;;;;;;4985644;28;99053;-88
2023/01/09 10:12:52;;;;;;;11.40;2.78;;;;;;;;;;4990999;28;98765;-88
2023/01/09 10:15:35;;;;;;;7.85;2.08;;;;;;;;;;4988182;28;99942;-87
2023/01/09 10:18:20;;;;;;;11.15;2.20;;;;;;;;;;4990528;28;99321;-88
2023/01/09 10:20:49;;;;;;;12.43;2.17;;;;;;;;;;4982948;28;98892;-87
2023/01/09 10:23:37;;;;;;;12.40;1.98;;;;;;;;;;4989922;28;99649;-85
2023/01/09 10:26:22;;;;;;;7.70;1.95;;;;;;;;;;4987858;28;99017;-86
2023/01/09 10:28:49;;;;;;;15.45;2.65;;;;;;;;;;4987964;28;99415;-87
2023/01/09 10:31:34;;;;;;;12.70;2.28;;;;;;;;;;4990947;28;100225;-87
2023/01/09 10:34:21;;;;;;;19.27;2.97;;;;;;;;;;4991089;28;99238;-86
2023/01/09 10:36:56;;;;;;;16.65;2.60;;;;;;;;;;4976973;28;99709;-86
2023/01/09 10:39:25;;;;;;;11.43;2.70;;;;;;;;;;4990434;28;101441;-85
2023/01/09 10:42:00;;;;;;;12.25;2.85;;;;;;;;;;4991652;28;100249;-86
2023/01/09 10:44:40;;;;;;;11.00;3.58;;;;;;;;;;4988683;28;101895;-85
2023/01/09 10:47:35;;;;;;;16.98;3.08;;;;;;;;;;4988225;28;99366;-85
2023/01/09 10:50:16;;;;;;;14.18;2.55;;;;;;;;;;4974374;28;100044;-85
2023/01/09 10:52:43;;;;;;;15.52;2.25;;;;;;;;;;4987456;28;98637;-86
2023/01/09 10:55:18;;;;;;;14.18;2.33;;;;;;;;;;4981418;28;98919;-82
2023/01/09 10:57:50;;;;;;;6.25;1.42;;;;;;;;;;4984250;28;99531;-79
2023/01/09 11:00:21;;;;;;;7.47;1.40;;;;;;;;;;4983452;28;99893;-82
2023/01/09 11:02:50;;;;;;;5.25;2.08;;;;;;;;;;4980912;28;98424;-83
2023/01/09 11:05:19;;;;;;;3.80;1.27;;;;;;;;;;4980389;28;100134;-83
2023/01/09 11:07:48;;;;;;;8.77;1.60;;;;;;;;;;4986658;28;99270;-83
2023/01/09 11:10:14;;;;;;;10.05;1.42;;;;;;;;;;4986148;28;99375;-83
2023/01/09 11:12:41;;;;;;;7.82;1.55;;;;;;;;;;4989963;28;100236;-83
2023/01/09 11:15:18;;;;;;;6.80;1.50;;;;;;;;;;4985216;28;98812;-82
2023/01/09 11:17:45;;;;;;;7.15;1.73;;;;;;;;;;4991368;28;99540;-83
2023/01/09 11:20:22;;;;;;;5.80;2.10;;;;;;;;;;4989321;28;98498;-83
2023/01/09 11:22:49;;;;;;;5.43;2.00;;;;;;;;;;4986711;28;99099;-82
2023/01/09 11:25:17;;;;;;;13.65;2.00;;;;;;;;;;4986561;28;99433;-80
2023/01/09 11:28:02;;;;;;;10.05;2.22;;;;;;;;;;4986872;28;99815;-81
2023/01/09 11:30:29;;;;;;;8.45;1.67;;;;;;;;;;4985406;28;99190;-81
2023/01/09 11:32:56;;;;;;;12.35;2.00;;;;;;;;;;4985859;28;99910;-82
2023/01/09 11:35:26;;;;;;;12.20;2.03;;;;;;;;;;4989048;28;99260;-81
2023/01/09 11:37:57;;;;;;;4.68;2.22;;;;;;;;;;4984716;28;100356;-80
2023/01/09 11:40:23;;;;;;;9.82;2.42;;;;;;;;;;4981289;28;100268;-80
2023/01/09 11:43:23;;;;;;;7.13;2.03;;;;;;;;;;4986479;28;99924;-80
2023/01/09 11:45:55;;;;;;;8.75;1.95;;;;;;;;;;4970843;28;100135;-80
2023/01/09 11:48:37;;;;;;;6.97;2.10;;;;;;;;;;4985805;28;100435;-81
2023/01/09 11:51:06;;;;;;;12.25;3.03;;;;;;;;;;4975963;28;99145;-80
2023/01/09 11:53:48;;;;;;;12.40;2.78;;;;;;;;;;4986353;28;99864;-80
2023/01/09 11:56:16;;;;;;;5.75;2.10;;;;;;;;;;4988670;28;100612;-80
2023/01/09 11:58:42;;;;;;;13.15;2.97;;;;;;;;;;4985167;28;100214;-80
2023/01/09 12:01:11;;;;;;;8.77;2.30;;;;;;;;;;4984275;28;99286;-80
2023/01/09 12:03:41;;;;;;;15.55;3.00;;;;;;;;;;4985840;28;99839;-80
2023/01/09 12:06:26;;;;;;;16.42;3.85;;;;;;;;;;4984565;28;99654;-80
2023/01/09 12:08:56;;;;;;;15.65;4.47;;;;;;;;;;4985123;28;99170;-80
2023/01/09 12:11:29;;;;;;;14.52;3.33;;;;;;;;;;4985311;28;99840;-79
2023/01/09 12:14:04;;;;;;;11.40;3.10;;;;;;;;;;4984570;28;100239;-80
2023/01/09 12:16:30;;;;;;;14.10;2.70;;;;;;;;;;4985657;28;99067;-80
2023/01/09 12:19:03;;;;;;;13.10;3.20;;;;;;;;;;4988289;28;99973;-79
2023/01/09 12:21:53;;;;;;;16.60;3.53;;;;;;;;;;4985834;28;98941;-79
2023/01/09 12:24:38;;;;;;;23.13;3.50;;;;;;;;;;4985371;28;99937;-78
2023/01/09 12:27:23;;;;;;;11.73;2.63;;;;;;;;;;4979831;28;100844;-78
2023/01/09 12:30:08;;;;;;;11.07;2.78;;;;;;;;;;4985249;28;99973;-79
2023/01/09 12:32:34;;;;;;;12.73;2.70;;;;;;;;;;4985308;28;100448;-79
2023/01/09 12:35:06;;;;;;;5.95;2.00;;;;;;;;;;4983584;28;99369;-79
2023/01/09 12:37:40;;;;;;;9.50;2.67;;;;;;;;;;4985212;28;100043;-80
2023/01/09 12:40:16;;;;;;;9.90;3.38;;;;;;;;;;4978558;28;98878;-79
2023/01/09 12:42:42;;;;;;;7.43;3.30;;;;;;;;;;4988823;28;99716;-81
2023/01/09 12:45:21;;;;;;;4.35;1.50;;;;;;;;;;4985326;28;99835;-80
2023/01/09 12:47:51;;;;;;;5.70;2.22;;;;;;;;;;4984960;28;99247;-80
2023/01/09 12:50:17;;;;;;;6.13;1.80;;;;;;;;;;4985080;28;99319;-80
2023/01/09 12:53:10;;;;;;;11.20;1.83;;;;;;;;;;4985247;28;99292;-80
2023/01/09 12:55:38;;;;;;;3.97;1.90;;;;;;;;;;4975496;28;100279;-80
2023/01/09 12:58:12;;;;;;;9.95;2.20;;;;;;;;;;4985338;28;99375;-80
2023/01/09 13:00:44;;;;;;;3.75;1.83;;;;;;;;;;4980245;28;100050;-79
2023/01/09 13:03:10;;;;;;;7.23;2.13;;;;;;;;;;4978711;28;100335;-84
2023/01/09 13:05:43;;;;;;;6.35;2.33;;;;;;;;;;4978239;28;100468;-78
2023/01/09 13:08:18;;;;;;;11.75;2.83;;;;;;;;;;4983978;28;100207;-81
2023/01/09 13:10:46;;;;;;;10.18;2.47;;;;;;;;;;4984768;28;99943;-82
2023/01/09 13:13:19;;;;;;;10.73;3.00;;;;;;;;;;4986316;28;98604;-83
2023/01/09 13:15:56;;;;;;;14.52;2.85;;;;;;;;;;4986487;28;99320;-81
2023/01/09 13:18:31;;;;;;;15.23;3.08;;;;;;;;;;4985875;28;99875;-79
2023/01/09 13:20:58;;;;;;;17.27;3.13;;;;;;;;;;4988364;28;100890;-79
2023/01/09 13:23:34;;;;;;;13.55;2.97;;;;;;;;;;4982061;28;100382;-79
2023/01/09 13:26:03;;;;;;;12.23;3.22;;;;;;;;;;4988168;28;99271;-79
2023/01/09 13:28:34;;;;;;;10.55;3.00;;;;;;;;;;4989854;28;100516;-78
2023/01/09 13:31:17;;;;;;;16.92;2.90;;;;;;;;;;4979514;28;99434;-77
2023/01/09 13:33:45;;;;;;;10.70;2.67;;;;;;;;;;4971453;28;100044;-80
2023/01/09 13:36:31;;;;;;;17.38;3.58;;;;;;;;;;4980671;28;98759;-78
2023/01/09 13:38:59;;;;;;;16.38;3.35;;;;;;;;;;4987560;28;99349;-78
2023/01/09 13:44:17;;;;;;;21.10;4.00;;;;;;;;;;4975764;28;100996;-79
2023/01/09 13:46:45;;;;;;;15.05;3.13;;;;;;;;;;4976124;28;100077;-78
2023/01/09 13:49:32;;;;;;;7.75;2.47;;;;;;;;;;4981668;28;99988;-79
2023/01/09 13:52:18;;;;;;;15.60;2.88;;;;;;;;;;4986098;28;100660;-81
2023/01/09 13:54:50;;;;;;;19.25;5.07;;;;;;;;;;4981202;28;99763;-79
2023/01/09 13:57:19;;;;;;;21.42;3.10;;;;;;;;;;4979978;28;100557;-78
2023/01/09 13:59:47;;;;;;;14.05;3.45;;;;;;;;;;4984469;28;99576;-78
2023/01/09 14:02:32;;;;;;;17.92;2.47;;;;;;;;;;4978468;28;99061;-78
2023/01/09 14:04:59;;;;;;;12.75;3.33;;;;;;;;;;4981623;28;100263;-79
2023/01/09 14:07:29;;;;;;;16.48;3.13;;;;;;;;;;4977465;28;100035;-79
2023/01/09 14:10:00;;;;;;;13.93;4.20;;;;;;;;;;4981909;28;99410;-79
2023/01/09 14:12:28;;;;;;;17.98;3.20;;;;;;;;;;4986540;28;99626;-78
2023/01/09 14:14:56;;;;;;;12.90;3.33;;;;;;;;;;4981779;28;100510;-78
2023/01/09 14:17:26;;;;;;;14.05;2.83;;;;;;;;;;4982624;28;100449;-78
2023/01/09 14:19:54;;;;;;;21.48;3.75;;;;;;;;;;4980145;28;100307;-78
2023/01/09 14:22:23;;;;;;;16.13;2.90;;;;;;;;;;4981905;28;99913;-77
2023/01/09 14:24:51;;;;;;;15.25;3.35;;;;;;;;;;4975200;28;100176;-77
2023/01/09 14:27:37;;;;;;;14.63;2.90;;;;;;;;;;4980408;28;99892;-79
2023/01/09 14:30:22;;;;;;;11.10;2.90;;;;;;;;;;4981039;28;100286;-79
2023/01/09 14:33:00;;;;;;;25.40;2.88;;;;;;;;;;4980828;28;99416;-79
2023/01/09 14:35:31;;;;;;;20.40;2.55;;;;;;;;;;4982409;28;101171;-79
2023/01/09 14:38:18;;;;;;;15.07;2.70;;;;;;;;;;4976312;28;100270;-78
2023/01/09 14:40:50;;;;;;;20.38;3.80;;;;;;;;;;4978913;28;99874;-79
2023/01/09 14:43:27;;;;;;;17.65;2.97;;;;;;;;;;4983813;28;100225;-78
2023/01/09 14:45:56;;;;;;;14.90;3.42;;;;;;;;;;4979643;28;101433;-79
2023/01/09 14:48:23;;;;;;;11.45;2.75;;;;;;;;;;4986993;28;99187;-79
2023/01/09 14:50:54;;;;;;;14.32;2.88;;;;;;;;;;4982008;28;99016;-77
2023/01/09 14:53:31;;;;;;;22.55;3.97;;;;;;;;;;4977733;28;98781;-78
2023/01/09 14:55:59;;;;;;;15.82;2.40;;;;;;;;;;4986272;28;100417;-78
2023/01/09 14:58:26;;;;;;;16.45;3.30;;;;;;;;;;4991581;28;99160;-79
2023/01/09 15:01:00;;;;;;;14.93;3.70;;;;;;;;;;4986452;28;99488;-79
2023/01/09 15:03:37;;;;;;;16.05;2.53;;;;;;;;;;4985006;28;100101;-78